sensor_id;sensor_type;location;lat;lon;timestamp;P1;durP1;ratioP1;P2;durP2;ratioP2
43118;SDS011;28729;49.838;8.650;2022-10-16T00:01:54;5.65;;;2.97;;
43118;SDS011;28729;49.838;8.650;2022-10-16T00:05:58;6.78;;;2.75;;
43118;SDS011;28729;49.838;8.650;2022-10-16T00:10:01;5.38;;;2.38;;
43118;SDS011;28729;49.838;8.650;2022-10-16T00:14:05;4.70;;;2.67;;
43118;SDS011;28729;49.838;8.650;2022-10-16T00:18:08;6.47;;;2.28;;
43118;SDS011;28729;49.838;8.650;2022-10-16T00:22:11;7.50;;;2.63;;
43118;SDS011;28729;49.838;8.650;2022-10-16T00:26:13;4.50;;;2.20;;
43118;SDS011;28729;49.838;8.650;2022-10-16T00:30:17;3.95;;;2.00;;
43118;SDS011;28729;49.838;8.650;2022-10-16T00:34:18;5.32;;;1.88;;
43118;SDS011;28729;49.838;8.650;2022-10-16T00:38:20;3.58;;;1.70;;
43118;SDS011;28729;49.838;8.650;2022-10-16T00:42:21;5.75;;;1.88;;
43118;SDS011;28729;49.838;8.650;2022-10-16T00:46:25;3.57;;;1.57;;
43118;SDS011;28729;49.838;8.650;2022-10-16T00:50:30;4.07;;;1.30;;
43118;SDS011;28729;49.838;8.650;2022-10-16T00:54:34;2.85;;;1.25;;
43118;SDS011;28729;49.838;8.650;2022-10-16T00:58:36;4.30;;;1.30;;
43118;SDS011;28729;49.838;8.650;2022-10-16T01:02:37;2.42;;;1.00;;
43118;SDS011;28729;49.838;8.650;2022-10-16T01:11:03;2.70;;;0.80;;
43118;SDS011;28729;49.838;8.650;2022-10-16T01:15:35;2.67;;;0.90;;
43118;SDS011;28729;49.838;8.650;2022-10-16T01:20:01;2.40;;;0.93;;
43118;SDS011;28729;49.838;8.650;2022-10-16T01:28:21;2.72;;;1.13;;
43118;SDS011;28729;49.838;8.650;2022-10-16T01:36:53;13.38;;;1.80;;
43118;SDS011;28729;49.838;8.650;2022-10-16T01:41:02;3.72;;;0.93;;
43118;SDS011;28729;49.838;8.650;2022-10-16T01:45:10;4.22;;;1.30;;
43118;SDS011;28729;49.838;8.650;2022-10-16T01:49:14;9.35;;;2.00;;
43118;SDS011;28729;49.838;8.650;2022-10-16T01:53:19;2.95;;;1.40;;
43118;SDS011;28729;49.838;8.650;2022-10-16T01:57:22;4.13;;;1.30;;
43118;SDS011;28729;49.838;8.650;2022-10-16T02:01:27;4.35;;;1.67;;
43118;SDS011;28729;49.838;8.650;2022-10-16T02:06:07;3.60;;;1.90;;
43118;SDS011;28729;49.838;8.650;2022-10-16T02:10:01;7.38;;;2.53;;
43118;SDS011;28729;49.838;8.650;2022-10-16T02:14:04;7.60;;;2.63;;
43118;SDS011;28729;49.838;8.650;2022-10-16T02:18:07;7.75;;;3.47;;
43118;SDS011;28729;49.838;8.650;2022-10-16T02:22:15;4.10;;;2.78;;
43118;SDS011;28729;49.838;8.650;2022-10-16T02:26:26;6.20;;;2.83;;
43118;SDS011;28729;49.838;8.650;2022-10-16T02:34:37;8.13;;;3.47;;
43118;SDS011;28729;49.838;8.650;2022-10-16T02:38:40;7.38;;;3.65;;
43118;SDS011;28729;49.838;8.650;2022-10-16T02:42:42;11.38;;;4.20;;
43118;SDS011;28729;49.838;8.650;2022-10-16T02:46:44;12.00;;;4.07;;
43118;SDS011;28729;49.838;8.650;2022-10-16T02:50:46;11.98;;;4.40;;
43118;SDS011;28729;49.838;8.650;2022-10-16T02:54:47;10.95;;;4.50;;
43118;SDS011;28729;49.838;8.650;2022-10-16T02:58:49;13.60;;;5.43;;
43118;SDS011;28729;49.838;8.650;2022-10-16T03:02:51;9.43;;;5.43;;
43118;SDS011;28729;49.838;8.650;2022-10-16T03:06:52;11.88;;;6.25;;
43118;SDS011;28729;49.838;8.650;2022-10-16T03:10:54;14.93;;;6.97;;
43118;SDS011;28729;49.838;8.650;2022-10-16T03:14:56;11.80;;;6.47;;
43118;SDS011;28729;49.838;8.650;2022-10-16T03:18:58;16.23;;;6.72;;
43118;SDS011;28729;49.838;8.650;2022-10-16T03:22:59;15.60;;;5.95;;
43118;SDS011;28729;49.838;8.650;2022-10-16T03:27:01;13.55;;;6.47;;
43118;SDS011;28729;49.838;8.650;2022-10-16T03:31:03;11.83;;;5.67;;
43118;SDS011;28729;49.838;8.650;2022-10-16T03:35:05;13.63;;;5.70;;
43118;SDS011;28729;49.838;8.650;2022-10-16T03:39:07;12.43;;;5.57;;
43118;SDS011;28729;49.838;8.650;2022-10-16T03:43:08;13.40;;;5.60;;
43118;SDS011;28729;49.838;8.650;2022-10-16T03:47:10;10.43;;;5.32;;
43118;SDS011;28729;49.838;8.650;2022-10-16T03:51:11;12.25;;;5.45;;
43118;SDS011;28729;49.838;8.650;2022-10-16T03:55:13;10.48;;;5.30;;
43118;SDS011;28729;49.838;8.650;2022-10-16T03:59:15;10.85;;;5.95;;
43118;SDS011;28729;49.838;8.650;2022-10-16T04:03:16;10.90;;;5.20;;
43118;SDS011;28729;49.838;8.650;2022-10-16T04:07:20;11.65;;;5.95;;
43118;SDS011;28729;49.838;8.650;2022-10-16T04:11:22;15.70;;;6.30;;
43118;SDS011;28729;49.838;8.650;2022-10-16T04:15:24;11.18;;;5.78;;
43118;SDS011;28729;49.838;8.650;2022-10-16T04:19:26;14.27;;;5.93;;
43118;SDS011;28729;49.838;8.650;2022-10-16T04:23:28;11.73;;;6.03;;
43118;SDS011;28729;49.838;8.650;2022-10-16T04:27:30;12.20;;;6.20;;
43118;SDS011;28729;49.838;8.650;2022-10-16T04:31:33;14.38;;;7.40;;
43118;SDS011;28729;49.838;8.650;2022-10-16T04:35:34;14.20;;;5.90;;
43118;SDS011;28729;49.838;8.650;2022-10-16T04:39:36;12.10;;;6.00;;
43118;SDS011;28729;49.838;8.650;2022-10-16T04:43:38;12.80;;;6.03;;
43118;SDS011;28729;49.838;8.650;2022-10-16T04:47:39;14.70;;;6.05;;
43118;SDS011;28729;49.838;8.650;2022-10-16T04:51:41;14.25;;;6.20;;
43118;SDS011;28729;49.838;8.650;2022-10-16T04:55:42;11.35;;;5.32;;
43118;SDS011;28729;49.838;8.650;2022-10-16T04:59:44;22.80;;;6.43;;
43118;SDS011;28729;49.838;8.650;2022-10-16T05:03:46;12.73;;;5.65;;
43118;SDS011;28729;49.838;8.650;2022-10-16T05:07:48;16.08;;;6.05;;
43118;SDS011;28729;49.838;8.650;2022-10-16T05:15:52;11.70;;;5.95;;
43118;SDS011;28729;49.838;8.650;2022-10-16T05:19:54;12.32;;;6.05;;
43118;SDS011;28729;49.838;8.650;2022-10-16T05:23:56;12.15;;;5.22;;
43118;SDS011;28729;49.838;8.650;2022-10-16T05:27:57;14.18;;;6.13;;
43118;SDS011;28729;49.838;8.650;2022-10-16T05:31:59;11.93;;;5.33;;
43118;SDS011;28729;49.838;8.650;2022-10-16T05:36:02;10.20;;;4.53;;
43118;SDS011;28729;49.838;8.650;2022-10-16T05:40:09;14.40;;;4.65;;
43118;SDS011;28729;49.838;8.650;2022-10-16T05:44:12;10.70;;;4.28;;
43118;SDS011;28729;49.838;8.650;2022-10-16T05:48:14;9.45;;;4.88;;
43118;SDS011;28729;49.838;8.650;2022-10-16T05:52:15;11.52;;;4.40;;
43118;SDS011;28729;49.838;8.650;2022-10-16T05:56:17;13.30;;;5.00;;
43118;SDS011;28729;49.838;8.650;2022-10-16T06:00:19;11.02;;;4.47;;
43118;SDS011;28729;49.838;8.650;2022-10-16T06:04:20;8.98;;;4.97;;
43118;SDS011;28729;49.838;8.650;2022-10-16T06:08:22;12.85;;;5.13;;
43118;SDS011;28729;49.838;8.650;2022-10-16T06:12:25;10.73;;;4.57;;
43118;SDS011;28729;49.838;8.650;2022-10-16T06:16:28;13.95;;;5.35;;
43118;SDS011;28729;49.838;8.650;2022-10-16T06:20:30;8.73;;;4.47;;
43118;SDS011;28729;49.838;8.650;2022-10-16T06:24:32;9.13;;;4.50;;
43118;SDS011;28729;49.838;8.650;2022-10-16T06:28:33;11.85;;;5.05;;
43118;SDS011;28729;49.838;8.650;2022-10-16T06:32:35;8.23;;;4.25;;
43118;SDS011;28729;49.838;8.650;2022-10-16T06:36:37;12.60;;;4.55;;
43118;SDS011;28729;49.838;8.650;2022-10-16T06:40:39;6.60;;;4.25;;
43118;SDS011;28729;49.838;8.650;2022-10-16T06:44:41;10.43;;;3.72;;
43118;SDS011;28729;49.838;8.650;2022-10-16T06:48:43;9.23;;;3.90;;
43118;SDS011;28729;49.838;8.650;2022-10-16T06:52:45;9.05;;;4.45;;
43118;SDS011;28729;49.838;8.650;2022-10-16T06:56:47;7.88;;;3.70;;
43118;SDS011;28729;49.838;8.650;2022-10-16T07:00:49;9.27;;;3.63;;
43118;SDS011;28729;49.838;8.650;2022-10-16T07:04:57;6.88;;;3.45;;
43118;SDS011;28729;49.838;8.650;2022-10-16T07:09:00;10.98;;;3.80;;
43118;SDS011;28729;49.838;8.650;2022-10-16T07:13:04;7.18;;;3.03;;
43118;SDS011;28729;49.838;8.650;2022-10-16T07:17:08;8.13;;;3.13;;
43118;SDS011;28729;49.838;8.650;2022-10-16T07:21:11;6.28;;;3.15;;
43118;SDS011;28729;49.838;8.650;2022-10-16T07:25:17;4.55;;;2.30;;
43118;SDS011;28729;49.838;8.650;2022-10-16T07:29:20;6.75;;;2.47;;
43118;SDS011;28729;49.838;8.650;2022-10-16T07:33:24;10.05;;;2.80;;
43118;SDS011;28729;49.838;8.650;2022-10-16T07:37:26;6.40;;;2.47;;
43118;SDS011;28729;49.838;8.650;2022-10-16T07:41:28;6.00;;;2.70;;
43118;SDS011;28729;49.838;8.650;2022-10-16T07:45:30;6.70;;;2.33;;
43118;SDS011;28729;49.838;8.650;2022-10-16T07:49:32;4.32;;;2.50;;
43118;SDS011;28729;49.838;8.650;2022-10-16T07:53:33;10.90;;;3.25;;
43118;SDS011;28729;49.838;8.650;2022-10-16T07:57:35;4.85;;;2.22;;
43118;SDS011;28729;49.838;8.650;2022-10-16T08:01:37;5.68;;;2.00;;
43118;SDS011;28729;49.838;8.650;2022-10-16T08:05:39;8.57;;;2.60;;
43118;SDS011;28729;49.838;8.650;2022-10-16T08:09:41;5.68;;;2.40;;
43118;SDS011;28729;49.838;8.650;2022-10-16T08:13:42;7.90;;;2.47;;
43118;SDS011;28729;49.838;8.650;2022-10-16T08:17:44;5.27;;;2.13;;
43118;SDS011;28729;49.838;8.650;2022-10-16T08:21:54;6.82;;;1.98;;
43118;SDS011;28729;49.838;8.650;2022-10-16T08:26:00;5.80;;;2.20;;
43118;SDS011;28729;49.838;8.650;2022-10-16T08:30:04;3.95;;;2.22;;
43118;SDS011;28729;49.838;8.650;2022-10-16T08:34:06;5.88;;;2.30;;
43118;SDS011;28729;49.838;8.650;2022-10-16T08:38:08;7.78;;;2.35;;
43118;SDS011;28729;49.838;8.650;2022-10-16T08:56:55;6.07;;;3.72;;
43118;SDS011;28729;49.838;8.650;2022-10-16T09:01:11;8.85;;;3.70;;
43118;SDS011;28729;49.838;8.650;2022-10-16T09:10:50;8.63;;;4.10;;
43118;SDS011;28729;49.838;8.650;2022-10-16T09:19:31;7.68;;;3.55;;
43118;SDS011;28729;49.838;8.650;2022-10-16T09:23:39;8.50;;;3.15;;
43118;SDS011;28729;49.838;8.650;2022-10-16T09:27:41;5.45;;;2.92;;
43118;SDS011;28729;49.838;8.650;2022-10-16T09:31:46;7.70;;;3.55;;
43118;SDS011;28729;49.838;8.650;2022-10-16T09:35:51;5.05;;;3.47;;
43118;SDS011;28729;49.838;8.650;2022-10-16T09:39:55;8.80;;;2.83;;
43118;SDS011;28729;49.838;8.650;2022-10-16T09:44:00;5.78;;;2.60;;
43118;SDS011;28729;49.838;8.650;2022-10-16T09:48:12;3.78;;;2.50;;
43118;SDS011;28729;49.838;8.650;2022-10-16T09:52:21;4.55;;;2.63;;
43118;SDS011;28729;49.838;8.650;2022-10-16T09:56:30;4.18;;;2.67;;
43118;SDS011;28729;49.838;8.650;2022-10-16T10:00:48;3.63;;;2.30;;
43118;SDS011;28729;49.838;8.650;2022-10-16T10:04:53;4.80;;;2.50;;
43118;SDS011;28729;49.838;8.650;2022-10-16T10:08:56;4.80;;;2.20;;
43118;SDS011;28729;49.838;8.650;2022-10-16T10:13:21;3.58;;;2.42;;
43118;SDS011;28729;49.838;8.650;2022-10-16T10:17:26;3.67;;;2.10;;
43118;SDS011;28729;49.838;8.650;2022-10-16T10:21:32;3.17;;;2.05;;
43118;SDS011;28729;49.838;8.650;2022-10-16T10:25:36;6.75;;;2.45;;
43118;SDS011;28729;49.838;8.650;2022-10-16T10:30:02;3.10;;;1.67;;
43118;SDS011;28729;49.838;8.650;2022-10-16T10:34:16;3.20;;;1.60;;
43118;SDS011;28729;49.838;8.650;2022-10-16T10:39:14;5.50;;;1.50;;
43118;SDS011;28729;49.838;8.650;2022-10-16T10:52:18;3.40;;;2.00;;
43118;SDS011;28729;49.838;8.650;2022-10-16T11:09:31;4.93;;;1.90;;
43118;SDS011;28729;49.838;8.650;2022-10-16T11:13:44;4.53;;;2.00;;
43118;SDS011;28729;49.838;8.650;2022-10-16T11:18:06;6.45;;;2.17;;
43118;SDS011;28729;49.838;8.650;2022-10-16T11:22:39;5.30;;;2.10;;
43118;SDS011;28729;49.838;8.650;2022-10-16T11:26:42;5.97;;;2.10;;
43118;SDS011;28729;49.838;8.650;2022-10-16T11:30:56;7.60;;;2.00;;
43118;SDS011;28729;49.838;8.650;2022-10-16T11:35:07;4.07;;;1.35;;
43118;SDS011;28729;49.838;8.650;2022-10-16T11:39:19;1.65;;;1.20;;
43118;SDS011;28729;49.838;8.650;2022-10-16T11:43:29;5.13;;;2.25;;
43118;SDS011;28729;49.838;8.650;2022-10-16T11:47:40;3.35;;;1.80;;
43118;SDS011;28729;49.838;8.650;2022-10-16T11:52:11;5.90;;;1.90;;
43118;SDS011;28729;49.838;8.650;2022-10-16T11:56:19;5.80;;;1.77;;
43118;SDS011;28729;49.838;8.650;2022-10-16T12:00:27;7.10;;;2.00;;
43118;SDS011;28729;49.838;8.650;2022-10-16T12:04:43;5.45;;;2.05;;
43118;SDS011;28729;49.838;8.650;2022-10-16T12:08:53;8.05;;;2.20;;
43118;SDS011;28729;49.838;8.650;2022-10-16T12:12:56;5.45;;;1.80;;
43118;SDS011;28729;49.838;8.650;2022-10-16T12:21:22;3.58;;;1.90;;
43118;SDS011;28729;49.838;8.650;2022-10-16T12:29:48;2.42;;;1.80;;
43118;SDS011;28729;49.838;8.650;2022-10-16T12:34:01;2.85;;;1.65;;
43118;SDS011;28729;49.838;8.650;2022-10-16T12:38:05;4.40;;;2.22;;
43118;SDS011;28729;49.838;8.650;2022-10-16T12:42:23;5.40;;;1.95;;
43118;SDS011;28729;49.838;8.650;2022-10-16T12:46:35;4.57;;;2.00;;
43118;SDS011;28729;49.838;8.650;2022-10-16T12:50:40;7.72;;;2.20;;
43118;SDS011;28729;49.838;8.650;2022-10-16T12:54:42;3.25;;;1.88;;
43118;SDS011;28729;49.838;8.650;2022-10-16T12:59:00;5.00;;;2.10;;
43118;SDS011;28729;49.838;8.650;2022-10-16T13:12:10;3.25;;;2.08;;
43118;SDS011;28729;49.838;8.650;2022-10-16T13:29:32;10.20;;;2.65;;
43118;SDS011;28729;49.838;8.650;2022-10-16T13:33:36;4.65;;;2.53;;
43118;SDS011;28729;49.838;8.650;2022-10-16T13:37:38;7.65;;;2.33;;
43118;SDS011;28729;49.838;8.650;2022-10-16T13:41:40;7.80;;;2.90;;
43118;SDS011;28729;49.838;8.650;2022-10-16T13:45:51;11.32;;;2.45;;
43118;SDS011;28729;49.838;8.650;2022-10-16T13:54:08;5.90;;;2.60;;
43118;SDS011;28729;49.838;8.650;2022-10-16T13:58:13;14.10;;;3.20;;
43118;SDS011;28729;49.838;8.650;2022-10-16T14:06:26;8.57;;;2.90;;
43118;SDS011;28729;49.838;8.650;2022-10-16T14:10:29;10.77;;;3.97;;
43118;SDS011;28729;49.838;8.650;2022-10-16T14:14:34;13.35;;;3.70;;
43118;SDS011;28729;49.838;8.650;2022-10-16T14:18:45;7.25;;;3.38;;
43118;SDS011;28729;49.838;8.650;2022-10-16T14:27:35;8.65;;;2.85;;
43118;SDS011;28729;49.838;8.650;2022-10-16T14:31:38;8.70;;;2.92;;
43118;SDS011;28729;49.838;8.650;2022-10-16T14:35:41;6.05;;;2.40;;
43118;SDS011;28729;49.838;8.650;2022-10-16T14:39:49;4.05;;;2.38;;
43118;SDS011;28729;49.838;8.650;2022-10-16T14:43:52;5.97;;;2.95;;
43118;SDS011;28729;49.838;8.650;2022-10-16T14:47:58;10.98;;;3.90;;
43118;SDS011;28729;49.838;8.650;2022-10-16T14:52:12;15.35;;;3.75;;
43118;SDS011;28729;49.838;8.650;2022-10-16T14:56:16;19.08;;;3.33;;
43118;SDS011;28729;49.838;8.650;2022-10-16T15:00:21;16.30;;;3.33;;
43118;SDS011;28729;49.838;8.650;2022-10-16T15:04:24;23.13;;;3.65;;
43118;SDS011;28729;49.838;8.650;2022-10-16T15:08:29;22.52;;;3.15;;
43118;SDS011;28729;49.838;8.650;2022-10-16T15:12:33;9.88;;;3.15;;
43118;SDS011;28729;49.838;8.650;2022-10-16T15:16:35;7.30;;;2.83;;
43118;SDS011;28729;49.838;8.650;2022-10-16T15:20:37;11.32;;;2.78;;
43118;SDS011;28729;49.838;8.650;2022-10-16T15:24:40;16.58;;;4.13;;
43118;SDS011;28729;49.838;8.650;2022-10-16T15:28:41;9.27;;;2.58;;
43118;SDS011;28729;49.838;8.650;2022-10-16T15:32:43;7.88;;;3.75;;
43118;SDS011;28729;49.838;8.650;2022-10-16T15:36:45;6.67;;;3.83;;
43118;SDS011;28729;49.838;8.650;2022-10-16T15:40:47;6.43;;;3.67;;
43118;SDS011;28729;49.838;8.650;2022-10-16T15:48:51;6.47;;;2.80;;
43118;SDS011;28729;49.838;8.650;2022-10-16T15:52:58;12.07;;;3.13;;
43118;SDS011;28729;49.838;8.650;2022-10-16T15:56:59;18.50;;;3.50;;
43118;SDS011;28729;49.838;8.650;2022-10-16T16:01:01;18.58;;;3.60;;
43118;SDS011;28729;49.838;8.650;2022-10-16T16:05:05;19.30;;;4.45;;
43118;SDS011;28729;49.838;8.650;2022-10-16T16:09:09;18.05;;;4.28;;
43118;SDS011;28729;49.838;8.650;2022-10-16T16:13:10;14.90;;;3.67;;
43118;SDS011;28729;49.838;8.650;2022-10-16T16:17:12;17.13;;;3.65;;
43118;SDS011;28729;49.838;8.650;2022-10-16T16:21:14;19.75;;;4.50;;
43118;SDS011;28729;49.838;8.650;2022-10-16T16:25:16;14.33;;;3.97;;
43118;SDS011;28729;49.838;8.650;2022-10-16T16:29:17;21.08;;;5.10;;
43118;SDS011;28729;49.838;8.650;2022-10-16T16:33:22;11.82;;;5.13;;
43118;SDS011;28729;49.838;8.650;2022-10-16T16:41:30;13.68;;;3.90;;
43118;SDS011;28729;49.838;8.650;2022-10-16T16:45:35;11.95;;;3.72;;
43118;SDS011;28729;49.838;8.650;2022-10-16T16:49:37;13.07;;;3.80;;
43118;SDS011;28729;49.838;8.650;2022-10-16T16:53:38;7.00;;;3.30;;
43118;SDS011;28729;49.838;8.650;2022-10-16T16:57:40;21.00;;;3.58;;
43118;SDS011;28729;49.838;8.650;2022-10-16T17:01:41;16.48;;;3.70;;
43118;SDS011;28729;49.838;8.650;2022-10-16T17:05:46;9.33;;;2.93;;
43118;SDS011;28729;49.838;8.650;2022-10-16T17:09:56;13.55;;;3.47;;
43118;SDS011;28729;49.838;8.650;2022-10-16T17:13:58;11.30;;;4.05;;
43118;SDS011;28729;49.838;8.650;2022-10-16T17:18:01;4.90;;;3.20;;
43118;SDS011;28729;49.838;8.650;2022-10-16T17:22:02;13.35;;;3.13;;
43118;SDS011;28729;49.838;8.650;2022-10-16T17:26:09;6.13;;;2.60;;
43118;SDS011;28729;49.838;8.650;2022-10-16T17:30:18;14.10;;;4.05;;
43118;SDS011;28729;49.838;8.650;2022-10-16T17:34:19;14.13;;;2.88;;
43118;SDS011;28729;49.838;8.650;2022-10-16T17:38:21;19.92;;;4.28;;
43118;SDS011;28729;49.838;8.650;2022-10-16T17:42:23;19.30;;;4.18;;
43118;SDS011;28729;49.838;8.650;2022-10-16T17:46:25;15.07;;;4.03;;
43118;SDS011;28729;49.838;8.650;2022-10-16T17:50:27;30.00;;;4.30;;
43118;SDS011;28729;49.838;8.650;2022-10-16T17:54:29;13.88;;;3.83;;
43118;SDS011;28729;49.838;8.650;2022-10-16T17:58:30;12.88;;;4.05;;
43118;SDS011;28729;49.838;8.650;2022-10-16T18:02:32;15.70;;;4.35;;
43118;SDS011;28729;49.838;8.650;2022-10-16T18:06:34;21.00;;;5.78;;
43118;SDS011;28729;49.838;8.650;2022-10-16T18:10:43;15.55;;;4.50;;
43118;SDS011;28729;49.838;8.650;2022-10-16T18:14:45;13.13;;;4.00;;
43118;SDS011;28729;49.838;8.650;2022-10-16T18:18:47;14.23;;;4.22;;
43118;SDS011;28729;49.838;8.650;2022-10-16T18:22:49;12.30;;;4.07;;
43118;SDS011;28729;49.838;8.650;2022-10-16T18:26:51;8.73;;;4.03;;
43118;SDS011;28729;49.838;8.650;2022-10-16T18:31:00;15.13;;;5.53;;
43118;SDS011;28729;49.838;8.650;2022-10-16T18:35:07;10.85;;;3.80;;
43118;SDS011;28729;49.838;8.650;2022-10-16T18:39:09;14.52;;;3.92;;
43118;SDS011;28729;49.838;8.650;2022-10-16T18:43:11;12.35;;;3.78;;
43118;SDS011;28729;49.838;8.650;2022-10-16T18:47:13;13.20;;;4.47;;
43118;SDS011;28729;49.838;8.650;2022-10-16T18:51:16;18.02;;;4.07;;
43118;SDS011;28729;49.838;8.650;2022-10-16T18:55:20;13.20;;;3.63;;
43118;SDS011;28729;49.838;8.650;2022-10-16T18:59:22;13.77;;;5.20;;
43118;SDS011;28729;49.838;8.650;2022-10-16T19:03:23;16.80;;;4.43;;
43118;SDS011;28729;49.838;8.650;2022-10-16T19:07:25;13.20;;;3.88;;
43118;SDS011;28729;49.838;8.650;2022-10-16T19:11:27;17.77;;;4.68;;
43118;SDS011;28729;49.838;8.650;2022-10-16T19:15:30;15.38;;;4.13;;
43118;SDS011;28729;49.838;8.650;2022-10-16T19:19:32;13.80;;;3.90;;
43118;SDS011;28729;49.838;8.650;2022-10-16T19:27:36;14.48;;;3.50;;
43118;SDS011;28729;49.838;8.650;2022-10-16T19:31:38;19.83;;;4.15;;
43118;SDS011;28729;49.838;8.650;2022-10-16T19:35:40;10.57;;;3.58;;
43118;SDS011;28729;49.838;8.650;2022-10-16T19:39:42;16.52;;;4.00;;
43118;SDS011;28729;49.838;8.650;2022-10-16T19:43:44;21.17;;;4.50;;
43118;SDS011;28729;49.838;8.650;2022-10-16T19:47:46;9.13;;;4.03;;
43118;SDS011;28729;49.838;8.650;2022-10-16T19:51:48;15.05;;;3.97;;
43118;SDS011;28729;49.838;8.650;2022-10-16T19:55:50;14.63;;;4.45;;
43118;SDS011;28729;49.838;8.650;2022-10-16T19:59:52;19.10;;;6.57;;
43118;SDS011;28729;49.838;8.650;2022-10-16T20:03:55;11.13;;;4.03;;
43118;SDS011;28729;49.838;8.650;2022-10-16T20:07:56;12.05;;;3.42;;
43118;SDS011;28729;49.838;8.650;2022-10-16T20:11:58;11.27;;;3.17;;
43118;SDS011;28729;49.838;8.650;2022-10-16T20:16:01;7.78;;;3.30;;
43118;SDS011;28729;49.838;8.650;2022-10-16T20:20:24;9.88;;;3.55;;
43118;SDS011;28729;49.838;8.650;2022-10-16T20:24:25;11.60;;;3.20;;
43118;SDS011;28729;49.838;8.650;2022-10-16T20:28:27;9.27;;;3.37;;
43118;SDS011;28729;49.838;8.650;2022-10-16T20:32:29;17.17;;;3.65;;
43118;SDS011;28729;49.838;8.650;2022-10-16T20:36:31;23.02;;;4.15;;
43118;SDS011;28729;49.838;8.650;2022-10-16T20:40:37;17.65;;;3.95;;
43118;SDS011;28729;49.838;8.650;2022-10-16T20:44:40;9.73;;;3.42;;
43118;SDS011;28729;49.838;8.650;2022-10-16T20:48:42;5.53;;;3.20;;
43118;SDS011;28729;49.838;8.650;2022-10-16T20:56:46;7.70;;;3.67;;
43118;SDS011;28729;49.838;8.650;2022-10-16T21:00:48;13.65;;;4.45;;
43118;SDS011;28729;49.838;8.650;2022-10-16T21:04:49;12.77;;;4.10;;
43118;SDS011;28729;49.838;8.650;2022-10-16T21:08:51;13.68;;;5.63;;
43118;SDS011;28729;49.838;8.650;2022-10-16T21:12:53;12.10;;;4.13;;
43118;SDS011;28729;49.838;8.650;2022-10-16T21:16:55;14.82;;;4.53;;
43118;SDS011;28729;49.838;8.650;2022-10-16T21:20:57;10.32;;;4.45;;
43118;SDS011;28729;49.838;8.650;2022-10-16T21:24:58;13.38;;;3.97;;
43118;SDS011;28729;49.838;8.650;2022-10-16T21:29:02;11.90;;;4.57;;
43118;SDS011;28729;49.838;8.650;2022-10-16T21:33:05;8.82;;;3.78;;
43118;SDS011;28729;49.838;8.650;2022-10-16T21:37:07;13.25;;;3.67;;
43118;SDS011;28729;49.838;8.650;2022-10-16T21:45:15;14.70;;;4.88;;
43118;SDS011;28729;49.838;8.650;2022-10-16T21:49:17;12.02;;;4.20;;
43118;SDS011;28729;49.838;8.650;2022-10-16T21:53:19;13.05;;;4.25;;
43118;SDS011;28729;49.838;8.650;2022-10-16T21:57:21;17.88;;;4.85;;
43118;SDS011;28729;49.838;8.650;2022-10-16T22:01:27;11.63;;;4.75;;
43118;SDS011;28729;49.838;8.650;2022-10-16T22:05:29;10.73;;;4.47;;
43118;SDS011;28729;49.838;8.650;2022-10-16T22:09:34;14.18;;;4.65;;
43118;SDS011;28729;49.838;8.650;2022-10-16T22:13:36;9.52;;;4.22;;
43118;SDS011;28729;49.838;8.650;2022-10-16T22:17:39;13.27;;;4.55;;
43118;SDS011;28729;49.838;8.650;2022-10-16T22:21:46;15.75;;;4.60;;
43118;SDS011;28729;49.838;8.650;2022-10-16T22:25:49;9.57;;;4.18;;
43118;SDS011;28729;49.838;8.650;2022-10-16T22:29:51;10.93;;;4.07;;
43118;SDS011;28729;49.838;8.650;2022-10-16T22:33:54;10.43;;;4.30;;
43118;SDS011;28729;49.838;8.650;2022-10-16T22:37:56;9.25;;;3.90;;
43118;SDS011;28729;49.838;8.650;2022-10-16T22:41:58;13.68;;;4.32;;
43118;SDS011;28729;49.838;8.650;2022-10-16T22:46:03;8.07;;;4.25;;
43118;SDS011;28729;49.838;8.650;2022-10-16T22:50:07;13.48;;;4.35;;
43118;SDS011;28729;49.838;8.650;2022-10-16T22:54:09;7.57;;;4.43;;
43118;SDS011;28729;49.838;8.650;2022-10-16T22:58:10;9.07;;;4.78;;
43118;SDS011;28729;49.838;8.650;2022-10-16T23:02:12;10.10;;;4.75;;
43118;SDS011;28729;49.838;8.650;2022-10-16T23:06:14;16.83;;;4.53;;
43118;SDS011;28729;49.838;8.650;2022-10-16T23:10:16;12.77;;;4.82;;
43118;SDS011;28729;49.838;8.650;2022-10-16T23:14:18;15.67;;;4.03;;
43118;SDS011;28729;49.838;8.650;2022-10-16T23:18:24;7.65;;;4.32;;
43118;SDS011;28729;49.838;8.650;2022-10-16T23:22:25;12.02;;;4.65;;
43118;SDS011;28729;49.838;8.650;2022-10-16T23:26:27;26.70;;;5.37;;
43118;SDS011;28729;49.838;8.650;2022-10-16T23:30:29;28.00;;;6.47;;
43118;SDS011;28729;49.838;8.650;2022-10-16T23:34:31;17.30;;;5.30;;
43118;SDS011;28729;49.838;8.650;2022-10-16T23:38:32;21.83;;;5.47;;
43118;SDS011;28729;49.838;8.650;2022-10-16T23:42:34;17.90;;;6.40;;
43118;SDS011;28729;49.838;8.650;2022-10-16T23:46:35;20.38;;;5.50;;
43118;SDS011;28729;49.838;8.650;2022-10-16T23:50:37;11.30;;;4.80;;
43118;SDS011;28729;49.838;8.650;2022-10-16T23:54:39;18.98;;;5.35;;
43118;SDS011;28729;49.838;8.650;2022-10-16T23:58:40;20.58;;;5.45;;
